sensor_id;sensor_type;location;lat;lon;timestamp;P1;durP1;ratioP1;P2;durP2;ratioP2
23155;SDS011;11746;50.876;4.246;2022-09-21T00:01:18;11.57;;;7.88;;
23155;SDS011;11746;50.876;4.246;2022-09-21T00:03:55;10.30;;;7.78;;
23155;SDS011;11746;50.876;4.246;2022-09-21T00:06:24;12.57;;;7.60;;
23155;SDS011;11746;50.876;4.246;2022-09-21T00:08:52;16.30;;;9.27;;
23155;SDS011;11746;50.876;4.246;2022-09-21T00:11:20;13.13;;;8.10;;
23155;SDS011;11746;50.876;4.246;2022-09-21T00:13:52;10.13;;;7.72;;
23155;SDS011;11746;50.876;4.246;2022-09-21T00:16:19;14.40;;;9.00;;
23155;SDS011;11746;50.876;4.246;2022-09-21T00:18:45;10.45;;;8.05;;
23155;SDS011;11746;50.876;4.246;2022-09-21T00:21:13;13.40;;;9.10;;
23155;SDS011;11746;50.876;4.246;2022-09-21T00:23:40;13.55;;;8.93;;
23155;SDS011;11746;50.876;4.246;2022-09-21T00:26:07;13.55;;;9.05;;
23155;SDS011;11746;50.876;4.246;2022-09-21T00:28:34;11.98;;;9.35;;
23155;SDS011;11746;50.876;4.246;2022-09-21T00:31:04;12.65;;;8.25;;
23155;SDS011;11746;50.876;4.246;2022-09-21T00:33:39;11.48;;;8.60;;
23155;SDS011;11746;50.876;4.246;2022-09-21T00:36:06;10.43;;;7.80;;
23155;SDS011;11746;50.876;4.246;2022-09-21T00:38:36;12.48;;;8.57;;
23155;SDS011;11746;50.876;4.246;2022-09-21T00:41:02;10.57;;;8.02;;
23155;SDS011;11746;50.876;4.246;2022-09-21T00:43:31;10.95;;;7.47;;
23155;SDS011;11746;50.876;4.246;2022-09-21T00:46:01;9.95;;;7.10;;
23155;SDS011;11746;50.876;4.246;2022-09-21T00:48:32;11.85;;;6.60;;
23155;SDS011;11746;50.876;4.246;2022-09-21T00:51:00;10.85;;;6.75;;
23155;SDS011;11746;50.876;4.246;2022-09-21T00:53:29;12.57;;;6.53;;
23155;SDS011;11746;50.876;4.246;2022-09-21T00:55:56;8.55;;;6.35;;
23155;SDS011;11746;50.876;4.246;2022-09-21T00:58:26;8.88;;;6.30;;
23155;SDS011;11746;50.876;4.246;2022-09-21T01:00:56;9.77;;;6.00;;
23155;SDS011;11746;50.876;4.246;2022-09-21T01:03:25;9.95;;;6.50;;
23155;SDS011;11746;50.876;4.246;2022-09-21T01:05:53;9.15;;;6.03;;
23155;SDS011;11746;50.876;4.246;2022-09-21T01:08:21;10.23;;;6.05;;
23155;SDS011;11746;50.876;4.246;2022-09-21T01:10:56;8.60;;;6.10;;
23155;SDS011;11746;50.876;4.246;2022-09-21T01:16:44;8.65;;;6.10;;
23155;SDS011;11746;50.876;4.246;2022-09-21T01:21:56;8.40;;;6.05;;
23155;SDS011;11746;50.876;4.246;2022-09-21T01:29:58;9.15;;;5.95;;
23155;SDS011;11746;50.876;4.246;2022-09-21T01:32:35;8.13;;;5.78;;
23155;SDS011;11746;50.876;4.246;2022-09-21T01:35:32;9.30;;;5.68;;
23155;SDS011;11746;50.876;4.246;2022-09-21T01:38:09;7.82;;;5.55;;
23155;SDS011;11746;50.876;4.246;2022-09-21T01:40:41;8.73;;;6.40;;
23155;SDS011;11746;50.876;4.246;2022-09-21T01:43:12;7.07;;;5.13;;
23155;SDS011;11746;50.876;4.246;2022-09-21T01:45:45;7.57;;;5.38;;
23155;SDS011;11746;50.876;4.246;2022-09-21T01:48:14;9.07;;;5.95;;
23155;SDS011;11746;50.876;4.246;2022-09-21T01:50:43;9.15;;;5.32;;
23155;SDS011;11746;50.876;4.246;2022-09-21T01:55:49;8.60;;;5.30;;
23155;SDS011;11746;50.876;4.246;2022-09-21T01:58:35;7.32;;;5.03;;
23155;SDS011;11746;50.876;4.246;2022-09-21T02:01:13;7.57;;;4.90;;
23155;SDS011;11746;50.876;4.246;2022-09-21T02:03:46;6.25;;;5.13;;
23155;SDS011;11746;50.876;4.246;2022-09-21T02:06:25;8.48;;;5.32;;
23155;SDS011;11746;50.876;4.246;2022-09-21T02:08:53;6.90;;;5.10;;
23155;SDS011;11746;50.876;4.246;2022-09-21T02:11:19;8.82;;;5.65;;
23155;SDS011;11746;50.876;4.246;2022-09-21T02:13:47;6.45;;;5.45;;
23155;SDS011;11746;50.876;4.246;2022-09-21T02:21:41;7.63;;;5.47;;
23155;SDS011;11746;50.876;4.246;2022-09-21T02:34:29;8.38;;;5.60;;
23155;SDS011;11746;50.876;4.246;2022-09-21T02:37:01;7.20;;;5.18;;
23155;SDS011;11746;50.876;4.246;2022-09-21T02:39:37;6.60;;;5.33;;
23155;SDS011;11746;50.876;4.246;2022-09-21T02:42:18;9.65;;;5.38;;
23155;SDS011;11746;50.876;4.246;2022-09-21T02:45:12;8.68;;;5.38;;
23155;SDS011;11746;50.876;4.246;2022-09-21T02:47:56;6.88;;;5.05;;
23155;SDS011;11746;50.876;4.246;2022-09-21T02:50:25;5.72;;;4.80;;
23155;SDS011;11746;50.876;4.246;2022-09-21T02:52:58;7.35;;;5.25;;
23155;SDS011;11746;50.876;4.246;2022-09-21T02:55:27;9.77;;;5.35;;
23155;SDS011;11746;50.876;4.246;2022-09-21T02:57:54;14.13;;;5.43;;
23155;SDS011;11746;50.876;4.246;2022-09-21T03:00:20;10.27;;;5.53;;
23155;SDS011;11746;50.876;4.246;2022-09-21T03:02:48;10.90;;;5.53;;
23155;SDS011;11746;50.876;4.246;2022-09-21T03:05:15;12.02;;;5.55;;
23155;SDS011;11746;50.876;4.246;2022-09-21T03:07:40;11.60;;;5.85;;
23155;SDS011;11746;50.876;4.246;2022-09-21T03:10:07;8.30;;;5.50;;
23155;SDS011;11746;50.876;4.246;2022-09-21T03:12:33;7.43;;;5.03;;
23155;SDS011;11746;50.876;4.246;2022-09-21T03:14:59;8.50;;;5.43;;
23155;SDS011;11746;50.876;4.246;2022-09-21T03:17:25;7.65;;;4.88;;
23155;SDS011;11746;50.876;4.246;2022-09-21T03:19:51;9.73;;;5.53;;
23155;SDS011;11746;50.876;4.246;2022-09-21T03:22:21;8.45;;;5.10;;
23155;SDS011;11746;50.876;4.246;2022-09-21T03:24:47;7.20;;;5.05;;
23155;SDS011;11746;50.876;4.246;2022-09-21T03:27:14;7.60;;;5.50;;
23155;SDS011;11746;50.876;4.246;2022-09-21T03:29:43;8.23;;;5.68;;
23155;SDS011;11746;50.876;4.246;2022-09-21T03:32:11;8.50;;;5.63;;
23155;SDS011;11746;50.876;4.246;2022-09-21T03:34:40;12.85;;;5.40;;
23155;SDS011;11746;50.876;4.246;2022-09-21T03:37:07;7.25;;;5.10;;
23155;SDS011;11746;50.876;4.246;2022-09-21T03:39:36;7.75;;;5.47;;
23155;SDS011;11746;50.876;4.246;2022-09-21T03:42:02;9.98;;;5.15;;
23155;SDS011;11746;50.876;4.246;2022-09-21T03:44:28;7.40;;;4.63;;
23155;SDS011;11746;50.876;4.246;2022-09-21T03:46:54;10.07;;;5.32;;
23155;SDS011;11746;50.876;4.246;2022-09-21T03:49:20;7.40;;;5.25;;
23155;SDS011;11746;50.876;4.246;2022-09-21T03:51:46;8.57;;;4.93;;
23155;SDS011;11746;50.876;4.246;2022-09-21T03:54:14;10.20;;;5.30;;
23155;SDS011;11746;50.876;4.246;2022-09-21T03:56:42;9.02;;;5.18;;
23155;SDS011;11746;50.876;4.246;2022-09-21T03:59:07;8.50;;;4.80;;
23155;SDS011;11746;50.876;4.246;2022-09-21T04:01:33;6.47;;;4.82;;
23155;SDS011;11746;50.876;4.246;2022-09-21T04:04:00;6.20;;;4.45;;
23155;SDS011;11746;50.876;4.246;2022-09-21T04:06:26;7.22;;;4.47;;
23155;SDS011;11746;50.876;4.246;2022-09-21T04:08:51;6.15;;;4.28;;
23155;SDS011;11746;50.876;4.246;2022-09-21T04:11:20;6.15;;;4.40;;
23155;SDS011;11746;50.876;4.246;2022-09-21T04:13:49;7.18;;;4.97;;
23155;SDS011;11746;50.876;4.246;2022-09-21T04:16:21;6.30;;;4.45;;
23155;SDS011;11746;50.876;4.246;2022-09-21T04:18:50;6.90;;;4.68;;
23155;SDS011;11746;50.876;4.246;2022-09-21T04:21:16;8.35;;;4.88;;
23155;SDS011;11746;50.876;4.246;2022-09-21T04:23:45;7.75;;;4.93;;
23155;SDS011;11746;50.876;4.246;2022-09-21T04:26:18;7.28;;;5.15;;
23155;SDS011;11746;50.876;4.246;2022-09-21T04:28:49;10.32;;;5.57;;
23155;SDS011;11746;50.876;4.246;2022-09-21T04:31:20;8.52;;;4.60;;
23155;SDS011;11746;50.876;4.246;2022-09-21T04:33:48;9.65;;;5.07;;
23155;SDS011;11746;50.876;4.246;2022-09-21T04:36:16;7.25;;;4.72;;
23155;SDS011;11746;50.876;4.246;2022-09-21T04:38:45;6.85;;;4.57;;
23155;SDS011;11746;50.876;4.246;2022-09-21T04:41:13;10.13;;;5.03;;
23155;SDS011;11746;50.876;4.246;2022-09-21T04:43:42;7.65;;;5.00;;
23155;SDS011;11746;50.876;4.246;2022-09-21T04:46:11;7.55;;;5.28;;
23155;SDS011;11746;50.876;4.246;2022-09-21T04:48:38;6.22;;;4.95;;
23155;SDS011;11746;50.876;4.246;2022-09-21T04:51:06;7.70;;;4.88;;
23155;SDS011;11746;50.876;4.246;2022-09-21T04:53:34;7.10;;;4.53;;
23155;SDS011;11746;50.876;4.246;2022-09-21T04:56:01;6.20;;;5.05;;
23155;SDS011;11746;50.876;4.246;2022-09-21T04:58:28;6.30;;;4.88;;
23155;SDS011;11746;50.876;4.246;2022-09-21T05:00:54;5.90;;;5.05;;
23155;SDS011;11746;50.876;4.246;2022-09-21T05:03:20;8.40;;;6.30;;
23155;SDS011;11746;50.876;4.246;2022-09-21T05:05:50;9.05;;;6.80;;
23155;SDS011;11746;50.876;4.246;2022-09-21T05:08:23;14.05;;;7.40;;
23155;SDS011;11746;50.876;4.246;2022-09-21T05:11:09;8.77;;;7.13;;
23155;SDS011;11746;50.876;4.246;2022-09-21T05:13:38;9.40;;;6.78;;
23155;SDS011;11746;50.876;4.246;2022-09-21T05:16:04;35.20;;;7.60;;
23155;SDS011;11746;50.876;4.246;2022-09-21T05:18:30;12.85;;;7.45;;
23155;SDS011;11746;50.876;4.246;2022-09-21T05:20:56;9.95;;;6.88;;
23155;SDS011;11746;50.876;4.246;2022-09-21T05:23:24;10.32;;;7.00;;
23155;SDS011;11746;50.876;4.246;2022-09-21T05:25:51;10.15;;;6.57;;
23155;SDS011;11746;50.876;4.246;2022-09-21T05:28:17;9.55;;;6.05;;
23155;SDS011;11746;50.876;4.246;2022-09-21T05:31:00;12.00;;;7.32;;
23155;SDS011;11746;50.876;4.246;2022-09-21T05:33:38;9.00;;;6.57;;
23155;SDS011;11746;50.876;4.246;2022-09-21T05:39:00;9.25;;;6.53;;
23155;SDS011;11746;50.876;4.246;2022-09-21T05:41:26;10.25;;;6.65;;
23155;SDS011;11746;50.876;4.246;2022-09-21T05:43:52;10.43;;;6.53;;
23155;SDS011;11746;50.876;4.246;2022-09-21T05:49:21;9.45;;;6.47;;
23155;SDS011;11746;50.876;4.246;2022-09-21T05:59:59;11.85;;;6.30;;
23155;SDS011;11746;50.876;4.246;2022-09-21T06:02:43;9.50;;;6.72;;
23155;SDS011;11746;50.876;4.246;2022-09-21T06:05:25;11.30;;;6.53;;
23155;SDS011;11746;50.876;4.246;2022-09-21T06:07:51;9.32;;;5.78;;
23155;SDS011;11746;50.876;4.246;2022-09-21T06:10:17;8.20;;;5.95;;
23155;SDS011;11746;50.876;4.246;2022-09-21T06:12:43;7.47;;;5.50;;
23155;SDS011;11746;50.876;4.246;2022-09-21T06:15:13;10.48;;;6.18;;
23155;SDS011;11746;50.876;4.246;2022-09-21T06:17:39;11.10;;;6.30;;
23155;SDS011;11746;50.876;4.246;2022-09-21T06:20:07;10.85;;;6.80;;
23155;SDS011;11746;50.876;4.246;2022-09-21T06:22:34;8.75;;;6.50;;
23155;SDS011;11746;50.876;4.246;2022-09-21T06:24:59;11.43;;;7.22;;
23155;SDS011;11746;50.876;4.246;2022-09-21T06:27:26;16.05;;;7.40;;
23155;SDS011;11746;50.876;4.246;2022-09-21T06:29:52;9.50;;;6.88;;
23155;SDS011;11746;50.876;4.246;2022-09-21T06:32:18;12.90;;;6.95;;
23155;SDS011;11746;50.876;4.246;2022-09-21T06:34:44;9.73;;;6.53;;
23155;SDS011;11746;50.876;4.246;2022-09-21T06:37:09;10.02;;;6.85;;
23155;SDS011;11746;50.876;4.246;2022-09-21T06:39:38;13.05;;;7.80;;
23155;SDS011;11746;50.876;4.246;2022-09-21T06:42:03;11.07;;;7.93;;
23155;SDS011;11746;50.876;4.246;2022-09-21T06:44:32;12.43;;;8.00;;
23155;SDS011;11746;50.876;4.246;2022-09-21T06:47:02;12.98;;;8.10;;
23155;SDS011;11746;50.876;4.246;2022-09-21T06:49:28;13.10;;;7.93;;
23155;SDS011;11746;50.876;4.246;2022-09-21T06:51:56;11.55;;;7.60;;
23155;SDS011;11746;50.876;4.246;2022-09-21T06:54:24;12.00;;;8.05;;
23155;SDS011;11746;50.876;4.246;2022-09-21T06:56:50;13.40;;;8.68;;
23155;SDS011;11746;50.876;4.246;2022-09-21T06:59:20;13.45;;;7.85;;
23155;SDS011;11746;50.876;4.246;2022-09-21T07:01:46;11.95;;;8.30;;
23155;SDS011;11746;50.876;4.246;2022-09-21T07:04:13;10.43;;;8.20;;
23155;SDS011;11746;50.876;4.246;2022-09-21T07:06:39;12.63;;;8.10;;
23155;SDS011;11746;50.876;4.246;2022-09-21T07:09:05;16.65;;;8.80;;
23155;SDS011;11746;50.876;4.246;2022-09-21T07:11:31;12.02;;;7.85;;
23155;SDS011;11746;50.876;4.246;2022-09-21T07:13:57;16.02;;;8.68;;
23155;SDS011;11746;50.876;4.246;2022-09-21T07:16:23;12.00;;;8.10;;
23155;SDS011;11746;50.876;4.246;2022-09-21T07:18:48;14.05;;;8.52;;
23155;SDS011;11746;50.876;4.246;2022-09-21T07:21:14;12.82;;;8.80;;
23155;SDS011;11746;50.876;4.246;2022-09-21T07:23:42;13.27;;;8.77;;
23155;SDS011;11746;50.876;4.246;2022-09-21T07:26:09;16.05;;;9.55;;
23155;SDS011;11746;50.876;4.246;2022-09-21T07:28:36;14.48;;;10.05;;
23155;SDS011;11746;50.876;4.246;2022-09-21T07:31:08;13.73;;;9.77;;
23155;SDS011;11746;50.876;4.246;2022-09-21T07:33:35;16.80;;;10.60;;
23155;SDS011;11746;50.876;4.246;2022-09-21T07:36:04;19.30;;;11.38;;
23155;SDS011;11746;50.876;4.246;2022-09-21T07:38:34;18.95;;;10.63;;
23155;SDS011;11746;50.876;4.246;2022-09-21T07:41:01;15.75;;;10.65;;
23155;SDS011;11746;50.876;4.246;2022-09-21T07:43:30;13.98;;;10.45;;
23155;SDS011;11746;50.876;4.246;2022-09-21T07:45:57;16.98;;;9.85;;
23155;SDS011;11746;50.876;4.246;2022-09-21T07:48:24;15.90;;;10.27;;
23155;SDS011;11746;50.876;4.246;2022-09-21T07:50:50;16.85;;;10.20;;
23155;SDS011;11746;50.876;4.246;2022-09-21T07:53:19;15.45;;;10.27;;
23155;SDS011;11746;50.876;4.246;2022-09-21T07:55:47;16.45;;;10.20;;
23155;SDS011;11746;50.876;4.246;2022-09-21T07:58:13;15.02;;;9.85;;
23155;SDS011;11746;50.876;4.246;2022-09-21T08:00:57;21.10;;;10.53;;
23155;SDS011;11746;50.876;4.246;2022-09-21T08:03:23;16.15;;;9.85;;
23155;SDS011;11746;50.876;4.246;2022-09-21T08:05:51;19.30;;;11.00;;
23155;SDS011;11746;50.876;4.246;2022-09-21T08:08:19;17.85;;;10.63;;
23155;SDS011;11746;50.876;4.246;2022-09-21T08:10:45;20.85;;;10.55;;
23155;SDS011;11746;50.876;4.246;2022-09-21T08:13:11;13.27;;;8.95;;
23155;SDS011;11746;50.876;4.246;2022-09-21T08:15:36;16.10;;;10.35;;
23155;SDS011;11746;50.876;4.246;2022-09-21T08:18:03;18.02;;;9.27;;
23155;SDS011;11746;50.876;4.246;2022-09-21T08:20:31;15.98;;;10.15;;
23155;SDS011;11746;50.876;4.246;2022-09-21T08:22:56;13.75;;;9.60;;
23155;SDS011;11746;50.876;4.246;2022-09-21T08:25:25;14.02;;;10.20;;
23155;SDS011;11746;50.876;4.246;2022-09-21T08:27:53;17.92;;;10.27;;
23155;SDS011;11746;50.876;4.246;2022-09-21T08:30:21;19.52;;;10.57;;
23155;SDS011;11746;50.876;4.246;2022-09-21T08:32:48;17.85;;;9.55;;
23155;SDS011;11746;50.876;4.246;2022-09-21T08:35:16;21.58;;;10.20;;
23155;SDS011;11746;50.876;4.246;2022-09-21T08:37:43;18.95;;;10.27;;
23155;SDS011;11746;50.876;4.246;2022-09-21T08:40:10;18.33;;;8.73;;
23155;SDS011;11746;50.876;4.246;2022-09-21T08:42:44;13.02;;;8.88;;
23155;SDS011;11746;50.876;4.246;2022-09-21T08:45:18;16.92;;;8.77;;
23155;SDS011;11746;50.876;4.246;2022-09-21T08:47:50;11.85;;;6.75;;
23155;SDS011;11746;50.876;4.246;2022-09-21T08:50:22;11.95;;;7.97;;
23155;SDS011;11746;50.876;4.246;2022-09-21T08:52:51;13.27;;;6.90;;
23155;SDS011;11746;50.876;4.246;2022-09-21T08:55:41;11.93;;;6.40;;
23155;SDS011;11746;50.876;4.246;2022-09-21T08:58:14;12.18;;;6.18;;
23155;SDS011;11746;50.876;4.246;2022-09-21T09:01:15;13.80;;;6.60;;
23155;SDS011;11746;50.876;4.246;2022-09-21T09:03:42;9.52;;;5.43;;
23155;SDS011;11746;50.876;4.246;2022-09-21T09:06:23;9.77;;;5.80;;
23155;SDS011;11746;50.876;4.246;2022-09-21T09:09:11;10.90;;;5.65;;
23155;SDS011;11746;50.876;4.246;2022-09-21T09:16:55;11.70;;;5.00;;
23155;SDS011;11746;50.876;4.246;2022-09-21T09:19:39;14.25;;;6.18;;
23155;SDS011;11746;50.876;4.246;2022-09-21T09:22:16;16.35;;;6.38;;
23155;SDS011;11746;50.876;4.246;2022-09-21T09:27:20;13.70;;;6.07;;
23155;SDS011;11746;50.876;4.246;2022-09-21T09:33:14;9.95;;;4.80;;
23155;SDS011;11746;50.876;4.246;2022-09-21T09:38:23;14.32;;;4.28;;
23155;SDS011;11746;50.876;4.246;2022-09-21T09:51:29;10.73;;;3.72;;
23155;SDS011;11746;50.876;4.246;2022-09-21T09:54:03;10.32;;;3.20;;
23155;SDS011;11746;50.876;4.246;2022-09-21T09:56:32;6.85;;;2.78;;
23155;SDS011;11746;50.876;4.246;2022-09-21T09:58:59;9.02;;;3.08;;
23155;SDS011;11746;50.876;4.246;2022-09-21T10:01:43;7.95;;;3.22;;
23155;SDS011;11746;50.876;4.246;2022-09-21T10:04:12;10.65;;;2.25;;
23155;SDS011;11746;50.876;4.246;2022-09-21T10:06:42;4.28;;;2.17;;
23155;SDS011;11746;50.876;4.246;2022-09-21T10:09:18;8.10;;;2.67;;
23155;SDS011;11746;50.876;4.246;2022-09-21T10:11:48;8.70;;;2.85;;
23155;SDS011;11746;50.876;4.246;2022-09-21T10:14:17;8.98;;;2.15;;
23155;SDS011;11746;50.876;4.246;2022-09-21T10:16:48;5.78;;;1.35;;
23155;SDS011;11746;50.876;4.246;2022-09-21T10:19:16;2.55;;;0.98;;
23155;SDS011;11746;50.876;4.246;2022-09-21T10:21:50;4.28;;;1.00;;
23155;SDS011;11746;50.876;4.246;2022-09-21T10:24:25;6.97;;;1.23;;
23155;SDS011;11746;50.876;4.246;2022-09-21T10:27:05;6.20;;;1.27;;
23155;SDS011;11746;50.876;4.246;2022-09-21T10:32:16;3.08;;;0.95;;
23155;SDS011;11746;50.876;4.246;2022-09-21T10:37:28;3.28;;;0.70;;
23155;SDS011;11746;50.876;4.246;2022-09-21T10:39:59;3.08;;;0.88;;
23155;SDS011;11746;50.876;4.246;2022-09-21T10:42:29;10.20;;;1.23;;
23155;SDS011;11746;50.876;4.246;2022-09-21T10:55:58;7.18;;;1.35;;
23155;SDS011;11746;50.876;4.246;2022-09-21T10:58:37;7.43;;;1.35;;
23155;SDS011;11746;50.876;4.246;2022-09-21T11:01:19;11.75;;;1.33;;
23155;SDS011;11746;50.876;4.246;2022-09-21T11:06:23;5.45;;;1.10;;
23155;SDS011;11746;50.876;4.246;2022-09-21T11:25:47;5.03;;;0.90;;
23155;SDS011;11746;50.876;4.246;2022-09-21T11:36:29;8.30;;;1.50;;
23155;SDS011;11746;50.876;4.246;2022-09-21T11:39:07;8.25;;;2.67;;
23155;SDS011;11746;50.876;4.246;2022-09-21T11:42:17;8.35;;;2.83;;
23155;SDS011;11746;50.876;4.246;2022-09-21T11:44:52;8.43;;;1.80;;
23155;SDS011;11746;50.876;4.246;2022-09-21T11:47:41;4.03;;;0.93;;
23155;SDS011;11746;50.876;4.246;2022-09-21T12:01:22;3.47;;;0.70;;
23155;SDS011;11746;50.876;4.246;2022-09-21T12:06:24;2.70;;;0.60;;
23155;SDS011;11746;50.876;4.246;2022-09-21T12:09:25;1.60;;;0.30;;
23155;SDS011;11746;50.876;4.246;2022-09-21T12:12:28;8.60;;;1.00;;
23155;SDS011;11746;50.876;4.246;2022-09-21T12:17:45;2.65;;;0.60;;
23155;SDS011;11746;50.876;4.246;2022-09-21T12:20:37;5.25;;;0.77;;
23155;SDS011;11746;50.876;4.246;2022-09-21T12:23:20;3.67;;;0.90;;
23155;SDS011;11746;50.876;4.246;2022-09-21T12:25:52;4.47;;;0.80;;
23155;SDS011;11746;50.876;4.246;2022-09-21T12:28:24;4.47;;;0.55;;
23155;SDS011;11746;50.876;4.246;2022-09-21T12:30:58;5.40;;;1.00;;
23155;SDS011;11746;50.876;4.246;2022-09-21T12:34:12;3.28;;;0.70;;
23155;SDS011;11746;50.876;4.246;2022-09-21T12:36:24;20.80;;;1.55;;
23155;SDS011;11746;50.876;4.246;2022-09-21T12:39:02;4.75;;;0.70;;
23155;SDS011;11746;50.876;4.246;2022-09-21T12:44:29;12.57;;;1.90;;
23155;SDS011;11746;50.876;4.246;2022-09-21T12:47:18;3.58;;;0.95;;
23155;SDS011;11746;50.876;4.246;2022-09-21T12:50:05;7.18;;;1.10;;
23155;SDS011;11746;50.876;4.246;2022-09-21T12:52:39;3.45;;;0.80;;
23155;SDS011;11746;50.876;4.246;2022-09-21T12:55:29;8.45;;;1.35;;
23155;SDS011;11746;50.876;4.246;2022-09-21T13:01:07;8.32;;;1.08;;
23155;SDS011;11746;50.876;4.246;2022-09-21T13:09:31;4.95;;;0.80;;
23155;SDS011;11746;50.876;4.246;2022-09-21T13:12:01;2.47;;;0.75;;
23155;SDS011;11746;50.876;4.246;2022-09-21T13:14:44;4.53;;;0.90;;
23155;SDS011;11746;50.876;4.246;2022-09-21T13:17:23;7.45;;;1.05;;
23155;SDS011;11746;50.876;4.246;2022-09-21T13:20:01;10.60;;;1.30;;
23155;SDS011;11746;50.876;4.246;2022-09-21T13:22:41;7.80;;;1.17;;
23155;SDS011;11746;50.876;4.246;2022-09-21T13:40:55;7.35;;;1.30;;
23155;SDS011;11746;50.876;4.246;2022-09-21T13:43:39;3.90;;;0.65;;
23155;SDS011;11746;50.876;4.246;2022-09-21T13:46:43;2.92;;;0.80;;
23155;SDS011;11746;50.876;4.246;2022-09-21T13:49:00;5.35;;;1.30;;
23155;SDS011;11746;50.876;4.246;2022-09-21T13:57:22;3.83;;;1.05;;
23155;SDS011;11746;50.876;4.246;2022-09-21T14:00:36;3.78;;;0.98;;
23155;SDS011;11746;50.876;4.246;2022-09-21T14:02:37;2.72;;;0.80;;
23155;SDS011;11746;50.876;4.246;2022-09-21T14:05:59;49.97;;;4.10;;
23155;SDS011;11746;50.876;4.246;2022-09-21T14:10:39;4.65;;;0.70;;
23155;SDS011;11746;50.876;4.246;2022-09-21T14:13:27;3.50;;;1.02;;
23155;SDS011;11746;50.876;4.246;2022-09-21T14:24:48;5.60;;;0.88;;
23155;SDS011;11746;50.876;4.246;2022-09-21T14:27:32;5.60;;;1.20;;
23155;SDS011;11746;50.876;4.246;2022-09-21T14:30:03;5.63;;;1.08;;
23155;SDS011;11746;50.876;4.246;2022-09-21T14:33:02;4.68;;;0.85;;
23155;SDS011;11746;50.876;4.246;2022-09-21T14:35:39;3.40;;;0.88;;
23155;SDS011;11746;50.876;4.246;2022-09-21T14:38:17;2.50;;;0.70;;
23155;SDS011;11746;50.876;4.246;2022-09-21T14:40:59;3.80;;;0.70;;
23155;SDS011;11746;50.876;4.246;2022-09-21T14:43:31;4.15;;;0.80;;
23155;SDS011;11746;50.876;4.246;2022-09-21T14:46:07;7.53;;;1.48;;
23155;SDS011;11746;50.876;4.246;2022-09-21T14:48:49;2.88;;;0.80;;
23155;SDS011;11746;50.876;4.246;2022-09-21T15:02:38;7.95;;;1.30;;
23155;SDS011;11746;50.876;4.246;2022-09-21T15:05:30;5.57;;;1.08;;
23155;SDS011;11746;50.876;4.246;2022-09-21T15:13:48;2.75;;;0.88;;
23155;SDS011;11746;50.876;4.246;2022-09-21T15:21:34;3.78;;;0.98;;
23155;SDS011;11746;50.876;4.246;2022-09-21T15:24:09;4.75;;;1.10;;
23155;SDS011;11746;50.876;4.246;2022-09-21T15:26:44;2.97;;;0.82;;
23155;SDS011;11746;50.876;4.246;2022-09-21T15:29:24;3.80;;;0.70;;
23155;SDS011;11746;50.876;4.246;2022-09-21T15:31:56;3.50;;;0.85;;
23155;SDS011;11746;50.876;4.246;2022-09-21T15:34:23;4.93;;;1.00;;
23155;SDS011;11746;50.876;4.246;2022-09-21T15:36:49;4.18;;;0.88;;
23155;SDS011;11746;50.876;4.246;2022-09-21T15:42:04;3.03;;;0.85;;
23155;SDS011;11746;50.876;4.246;2022-09-21T15:44:46;5.20;;;1.00;;
23155;SDS011;11746;50.876;4.246;2022-09-21T15:47:17;2.63;;;0.80;;
23155;SDS011;11746;50.876;4.246;2022-09-21T15:49:46;4.07;;;0.70;;
23155;SDS011;11746;50.876;4.246;2022-09-21T15:52:33;6.78;;;1.20;;
23155;SDS011;11746;50.876;4.246;2022-09-21T15:55:15;4.78;;;1.65;;
23155;SDS011;11746;50.876;4.246;2022-09-21T15:57:53;3.65;;;0.82;;
23155;SDS011;11746;50.876;4.246;2022-09-21T16:00:30;6.38;;;0.90;;
23155;SDS011;11746;50.876;4.246;2022-09-21T16:03:06;5.68;;;1.20;;
23155;SDS011;11746;50.876;4.246;2022-09-21T16:05:49;5.93;;;1.05;;
23155;SDS011;11746;50.876;4.246;2022-09-21T16:08:25;1.88;;;0.60;;
23155;SDS011;11746;50.876;4.246;2022-09-21T16:11:09;4.18;;;0.75;;
23155;SDS011;11746;50.876;4.246;2022-09-21T16:13:41;5.63;;;0.80;;
23155;SDS011;11746;50.876;4.246;2022-09-21T16:16:26;4.80;;;0.80;;
23155;SDS011;11746;50.876;4.246;2022-09-21T16:18:53;3.60;;;0.80;;
23155;SDS011;11746;50.876;4.246;2022-09-21T16:21:32;3.38;;;0.80;;
23155;SDS011;11746;50.876;4.246;2022-09-21T16:24:17;4.82;;;1.10;;
23155;SDS011;11746;50.876;4.246;2022-09-21T16:26:56;4.03;;;0.80;;
23155;SDS011;11746;50.876;4.246;2022-09-21T16:29:27;3.75;;;1.05;;
23155;SDS011;11746;50.876;4.246;2022-09-21T16:34:41;3.80;;;0.88;;
23155;SDS011;11746;50.876;4.246;2022-09-21T16:39:52;4.07;;;0.70;;
23155;SDS011;11746;50.876;4.246;2022-09-21T16:42:29;6.30;;;0.80;;
23155;SDS011;11746;50.876;4.246;2022-09-21T16:44:58;3.40;;;0.98;;
23155;SDS011;11746;50.876;4.246;2022-09-21T16:47:26;4.53;;;0.70;;
23155;SDS011;11746;50.876;4.246;2022-09-21T16:49:58;3.72;;;0.68;;
23155;SDS011;11746;50.876;4.246;2022-09-21T16:52:28;3.65;;;0.80;;
23155;SDS011;11746;50.876;4.246;2022-09-21T16:54:56;2.20;;;0.70;;
23155;SDS011;11746;50.876;4.246;2022-09-21T16:57:22;4.32;;;0.80;;
23155;SDS011;11746;50.876;4.246;2022-09-21T16:59:49;4.38;;;0.73;;
23155;SDS011;11746;50.876;4.246;2022-09-21T17:02:16;5.65;;;0.80;;
23155;SDS011;11746;50.876;4.246;2022-09-21T17:04:42;1.20;;;0.60;;
23155;SDS011;11746;50.876;4.246;2022-09-21T17:07:12;4.28;;;0.80;;
23155;SDS011;11746;50.876;4.246;2022-09-21T17:09:41;3.35;;;0.88;;
23155;SDS011;11746;50.876;4.246;2022-09-21T17:12:12;2.55;;;0.90;;
23155;SDS011;11746;50.876;4.246;2022-09-21T17:14:42;4.60;;;0.70;;
23155;SDS011;11746;50.876;4.246;2022-09-21T17:19:44;5.40;;;1.30;;
23155;SDS011;11746;50.876;4.246;2022-09-21T17:22:13;2.00;;;0.90;;
23155;SDS011;11746;50.876;4.246;2022-09-21T17:24:44;5.13;;;1.00;;
23155;SDS011;11746;50.876;4.246;2022-09-21T17:27:14;2.70;;;1.20;;
23155;SDS011;11746;50.876;4.246;2022-09-21T17:29:44;4.63;;;0.98;;
23155;SDS011;11746;50.876;4.246;2022-09-21T17:32:16;4.55;;;1.20;;
23155;SDS011;11746;50.876;4.246;2022-09-21T17:34:51;5.97;;;1.55;;
23155;SDS011;11746;50.876;4.246;2022-09-21T17:37:36;7.50;;;1.30;;
23155;SDS011;11746;50.876;4.246;2022-09-21T17:40:02;6.03;;;1.20;;
23155;SDS011;11746;50.876;4.246;2022-09-21T17:42:28;4.13;;;1.05;;
23155;SDS011;11746;50.876;4.246;2022-09-21T17:47:37;3.55;;;1.10;;
23155;SDS011;11746;50.876;4.246;2022-09-21T17:52:41;5.53;;;1.05;;
23155;SDS011;11746;50.876;4.246;2022-09-21T17:55:29;2.35;;;0.70;;
23155;SDS011;11746;50.876;4.246;2022-09-21T17:58:02;3.22;;;1.08;;
23155;SDS011;11746;50.876;4.246;2022-09-21T18:01:04;4.22;;;1.27;;
23155;SDS011;11746;50.876;4.246;2022-09-21T18:03:36;4.82;;;1.27;;
23155;SDS011;11746;50.876;4.246;2022-09-21T18:06:07;5.53;;;1.98;;
23155;SDS011;11746;50.876;4.246;2022-09-21T18:08:34;3.25;;;1.48;;
23155;SDS011;11746;50.876;4.246;2022-09-21T18:17:34;11.23;;;2.30;;
23155;SDS011;11746;50.876;4.246;2022-09-21T18:23:05;6.47;;;1.80;;
23155;SDS011;11746;50.876;4.246;2022-09-21T18:25:41;8.38;;;2.65;;
23155;SDS011;11746;50.876;4.246;2022-09-21T18:28:34;4.22;;;1.83;;
23155;SDS011;11746;50.876;4.246;2022-09-21T18:47:29;5.43;;;1.88;;
23155;SDS011;11746;50.876;4.246;2022-09-21T18:52:42;7.07;;;2.00;;
23155;SDS011;11746;50.876;4.246;2022-09-21T18:55:22;5.85;;;2.53;;
23155;SDS011;11746;50.876;4.246;2022-09-21T18:57:51;8.17;;;3.23;;
23155;SDS011;11746;50.876;4.246;2022-09-21T19:00:21;8.75;;;3.30;;
23155;SDS011;11746;50.876;4.246;2022-09-21T19:02:51;7.38;;;3.50;;
23155;SDS011;11746;50.876;4.246;2022-09-21T19:05:17;6.20;;;3.17;;
23155;SDS011;11746;50.876;4.246;2022-09-21T19:07:50;12.25;;;3.10;;
23155;SDS011;11746;50.876;4.246;2022-09-21T19:10:30;5.85;;;2.97;;
23155;SDS011;11746;50.876;4.246;2022-09-21T19:18:29;9.07;;;3.63;;